Alderpoint, California
Current Conditions -  °F | °C
As of 12:55 PM on Friday 31 Oct 2014 (Local Time) from KO54 Reporting Station
Overcast Overcast  
Wind Chill: 48°   Ceiling: 2900
Heat Index: 48°   Visibility: 10mi
Dew Point: 45°   Wind: 0mph
Humidity: 87%   Direction: NA
Pressure: 29.84"   Gusts: NA
Location:  40.18°N, 123.61°W
Report Text: KO54 311955Z AUTO 00000KT 10SM BKN029 OVC090 09/07 A2984 RMK AO1
Loading
Personal Weather Stations






























Interactive Weather Map
Tropical Storm Tracking
New forecast layout! Learn more

10-Day Weather Forecast

Advertisements
Track Severe Weather on mobile